Time;durP1;ratioP1;P1;durP2;ratioP2;P2;SDS_P1;SDS_P2;PMS_P1;PMS_P2;Temp;Humidity;BMP_temperature;BMP_pressure;BME280_temperature;BME280_humidity;BME280_pressure;Samples;Min_cycle;Max_cycle;Signal;HPM_P1;HPM_P2
2022/05/19 00:00:19;;;;;;;5.75;2.12;;;;;;;11.39;33.53;101520.27;1730906;82;21017;-67
2022/05/19 00:02:47;;;;;;;5.97;2.42;;;;;;;11.40;33.56;101520.59;1731214;82;21578;-67
2022/05/19 00:05:13;;;;;;;5.60;2.33;;;;;;;11.37;33.60;101520.89;1732980;82;21006;-67
2022/05/19 00:07:39;;;;;;;6.97;2.70;;;;;;;11.38;33.64;101515.91;1730364;83;20895;-68
2022/05/19 00:10:06;;;;;;;6.08;2.20;;;;;;;11.37;33.70;101522.72;1731718;81;21238;-67
2022/05/19 00:12:35;;;;;;;7.87;2.60;;;;;;;11.35;33.74;101514.87;1735564;81;21023;-67
2022/05/19 00:15:01;;;;;;;3.98;2.22;;;;;;;11.41;33.82;101515.61;1732454;81;22188;-67
2022/05/19 00:17:27;;;;;;;6.95;2.17;;;;;;;11.38;33.84;101514.56;1734298;81;21062;-67
2022/05/19 00:19:53;;;;;;;6.35;2.47;;;;;;;11.37;33.90;101515.55;1739113;81;20979;-67
2022/05/19 00:22:19;;;;;;;4.78;2.00;;;;;;;11.34;33.95;101514.52;1733566;81;21249;-67
2022/05/19 00:24:45;;;;;;;5.58;2.33;;;;;;;11.34;34.01;101520.34;1733010;81;21761;-67
2022/05/19 00:27:11;;;;;;;6.35;2.85;;;;;;;11.37;34.08;101514.70;1729265;81;21006;-68
2022/05/19 00:29:37;;;;;;;5.55;2.55;;;;;;;11.37;34.13;101515.55;1717169;81;20899;-67
2022/05/19 00:32:03;;;;;;;7.78;2.72;;;;;;;11.35;34.17;101509.53;1738375;82;20922;-67
2022/05/19 00:34:29;;;;;;;6.30;2.70;;;;;;;11.33;34.21;101508.81;1729920;82;21815;-67
2022/05/19 00:37:02;;;;;;;7.67;2.60;;;;;;;11.28;34.29;101505.77;1733224;82;20877;-67
2022/05/19 00:39:29;;;;;;;5.58;2.35;;;;;;;11.24;34.37;101506.20;1732563;81;21034;-67
2022/05/19 00:44:40;;;;;;;9.35;2.50;;;;;;;11.19;34.49;101494.61;1734358;81;21074;-67
2022/05/19 00:47:08;;;;;;;4.92;2.55;;;;;;;11.13;34.57;101497.87;1741579;81;22127;-67
2022/05/19 00:49:37;;;;;;;5.72;2.37;;;;;;;11.10;34.65;101496.84;1733804;82;21545;-67
2022/05/19 00:52:23;;;;;;;6.65;2.25;;;;;;;11.08;34.71;101497.50;1731189;82;28317;-67
2022/05/19 00:54:53;;;;;;;5.12;2.60;;;;;;;11.07;34.77;101502.48;1732149;81;21008;-67
2022/05/19 00:57:24;;;;;;;;;;;;;;;11.07;34.85;101496.30;1738120;81;21538;-67
2022/05/19 00:59:57;;;;;;;4.83;2.72;;;;;;;11.08;34.93;101498.83;1741821;81;21071;-67
2022/05/19 01:02:29;;;;;;;8.95;2.80;;;;;;;11.08;34.96;101498.83;1735331;82;21255;-67
2022/05/19 01:05:08;;;;;;;5.60;2.90;;;;;;;11.06;35.02;101495.94;1755071;81;21010;-68
2022/05/19 01:07:48;;;;;;;5.28;2.40;;;;;;;11.03;35.09;101493.07;1730803;82;21051;-68
2022/05/19 01:10:14;;;;;;;5.60;2.55;;;;;;;11.00;35.17;101486.70;1728936;81;21031;-67
2022/05/19 01:12:41;;;;;;;4.70;3.08;;;;;;;10.98;35.22;101495.33;1732564;81;21614;-67
2022/05/19 01:15:07;;;;;;;5.53;2.30;;;;;;;11.01;35.29;101495.06;1732842;81;21078;-67
2022/05/19 01:17:34;;;;;;;6.30;2.60;;;;;;;10.99;35.35;101483.67;1731996;82;21022;-68
2022/05/19 01:20:23;;;;;;;7.05;2.50;;;;;;;11.01;35.39;101481.72;1740919;81;21050;-67
2022/05/19 01:23:13;;;;;;;4.70;2.60;;;;;;;11.02;35.44;101477.55;1739641;81;21002;-67
2022/05/19 01:25:51;;;;;;;5.40;2.30;;;;;;;11.03;35.51;101473.05;1732645;81;21173;-67
2022/05/19 01:28:17;;;;;;;5.10;2.45;;;;;;;11.04;35.54;101473.41;1732505;82;21047;-67
2022/05/19 01:30:44;;;;;;;5.08;2.58;;;;;;;11.05;35.59;101472.40;1746205;81;21058;-67
2022/05/19 01:33:10;;;;;;;4.78;2.40;;;;;;;10.99;35.64;101463.16;1731792;82;21026;-67
2022/05/19 01:35:36;;;;;;;5.22;2.67;;;;;;;10.94;35.70;101465.94;1731655;82;20920;-67
2022/05/19 01:38:20;;;;;;;5.08;2.33;;;;;;;10.91;35.77;101463.53;1735028;81;21197;-67
2022/05/19 01:41:13;;;;;;;4.47;2.60;;;;;;;10.90;35.82;101466.72;1712961;81;21024;-67
2022/05/19 01:44:13;;;;;;;3.87;2.47;;;;;;;10.86;35.90;101459.14;1733679;81;21515;-68
2022/05/19 01:46:40;;;;;;;4.42;2.60;;;;;;;10.81;35.96;101465.39;1737453;81;20991;-67
2022/05/19 01:49:35;;;;;;;4.97;2.37;;;;;;;10.77;36.04;101462.66;1740758;81;21628;-67
2022/05/19 01:52:38;;;;;;;4.70;2.50;;;;;;;10.76;36.08;101457.00;1704126;84;21358;-67
2022/05/19 01:55:18;;;;;;;6.53;3.00;;;;;;;10.74;36.16;101460.30;1699828;82;21073;-67
2022/05/19 01:58:04;;;;;;;5.10;2.40;;;;;;;10.70;36.22;101461.08;1700393;82;21566;-67
2022/05/19 02:00:30;;;;;;;8.05;2.77;;;;;;;10.64;36.30;101456.81;1699911;82;21070;-67
2022/05/19 02:03:23;;;;;;;5.92;2.98;;;;;;;10.61;36.36;101455.28;1702054;82;21101;-67
2022/05/19 02:06:10;;;;;;;7.10;2.80;;;;;;;10.57;36.42;101445.03;1697852;84;21231;-68
2022/05/19 02:08:53;;;;;;;6.92;2.60;;;;;;;10.55;36.48;101449.69;1701518;84;21065;-67
2022/05/19 02:11:29;;;;;;;4.72;2.58;;;;;;;10.50;36.58;101453.63;1702750;83;21090;-68
2022/05/19 02:13:56;;;;;;;7.33;2.72;;;;;;;10.47;36.64;101449.91;1697295;82;21044;-67
2022/05/19 02:16:22;;;;;;;7.33;2.77;;;;;;;10.41;36.71;101444.31;1691943;84;21571;-67
2022/05/19 02:18:48;;;;;;;10.13;2.85;;;;;;;10.36;36.78;101448.73;1682582;82;21534;-67
2022/05/19 02:21:15;;;;;;;6.83;2.90;;;;;;;10.33;36.87;101443.70;1689643;84;20936;-67
2022/05/19 02:23:41;;;;;;;6.53;3.37;;;;;;;10.29;36.94;101450.29;1644384;84;21514;-67
2022/05/19 02:26:07;;;;;;;4.87;3.05;;;;;;;10.25;37.05;101444.89;1672194;82;21056;-68
2022/05/19 02:28:44;;;;;;;4.90;3.10;;;;;;;10.21;37.13;101444.81;1688455;82;21118;-67
2022/05/19 02:31:10;;;;;;;8.10;3.02;;;;;;;10.17;37.25;101439.94;1674593;85;21036;-67
2022/05/19 02:33:36;;;;;;;8.30;3.15;;;;;;;10.14;37.34;101445.48;1675600;82;20899;-67
2022/05/19 02:36:04;;;;;;;5.80;3.72;;;;;;;10.08;37.44;101438.91;1702385;83;21493;-67
2022/05/19 02:38:30;;;;;;;5.53;3.40;;;;;;;10.05;37.54;101429.87;1702511;84;21046;-67
2022/05/19 02:40:56;;;;;;;6.22;3.12;;;;;;;10.02;37.67;101435.48;1699480;84;21026;-67
2022/05/19 02:43:22;;;;;;;9.55;3.90;;;;;;;9.98;37.77;101424.27;1696441;84;21156;-67
2022/05/19 02:45:48;;;;;;;11.08;3.62;;;;;;;9.96;37.88;101429.36;1697469;82;21079;-67
2022/05/19 02:48:14;;;;;;;6.75;3.62;;;;;;;9.94;38.01;101429.52;1685763;82;21040;-67
2022/05/19 02:50:42;;;;;;;8.93;3.42;;;;;;;9.95;38.10;101429.03;1673690;82;21510;-67
2022/05/19 02:53:10;;;;;;;6.97;3.67;;;;;;;9.91;38.19;101430.30;1673039;83;21060;-67
2022/05/19 02:55:37;;;;;;;8.13;3.70;;;;;;;9.90;38.30;101427.27;1705228;82;21814;-67
2022/05/19 02:58:03;;;;;;;9.30;3.50;;;;;;;9.90;38.45;101423.27;1704901;82;21102;-67
2022/05/19 03:00:31;;;;;;;10.20;3.67;;;;;;;9.90;38.52;101425.94;1681570;82;21023;-67
2022/05/19 03:02:57;;;;;;;9.65;3.92;;;;;;;9.89;38.61;101425.58;1698909;82;21034;-67
2022/05/19 03:05:27;;;;;;;8.28;3.37;;;;;;;9.86;38.70;101424.53;1705557;82;21673;-67
2022/05/19 03:07:53;;;;;;;12.15;3.55;;;;;;;9.83;38.80;101423.48;1701212;82;21077;-67
2022/05/19 03:10:19;;;;;;;9.45;4.28;;;;;;;9.83;38.92;101423.48;1705477;82;21543;-67
2022/05/19 03:12:45;;;;;;;8.10;3.65;;;;;;;9.82;39.01;101417.80;1705520;84;20903;-67
2022/05/19 03:15:12;;;;;;;9.60;4.10;;;;;;;9.79;39.09;101419.41;1682351;83;20996;-67
2022/05/19 03:17:37;;;;;;;7.30;3.95;;;;;;;9.80;39.19;101409.12;1685555;82;21093;-67
2022/05/19 03:20:06;;;;;;;11.33;4.20;;;;;;;9.83;39.29;101408.34;1704648;82;21216;-67
2022/05/19 03:22:33;;;;;;;6.08;3.70;;;;;;;9.89;39.38;101418.92;1679182;84;21557;-67
2022/05/19 03:24:59;;;;;;;8.05;3.25;;;;;;;9.93;39.50;101404.34;1705804;82;21020;-67
2022/05/19 03:27:25;;;;;;;6.40;3.65;;;;;;;9.96;39.56;101412.05;1705666;82;20955;-67
2022/05/19 03:29:52;;;;;;;6.72;3.40;;;;;;;10.00;39.69;101415.63;1705624;82;21073;-67
2022/05/19 03:32:19;;;;;;;13.10;4.03;;;;;;;10.09;39.75;101411.28;1705827;84;21342;-67
2022/05/19 03:34:45;;;;;;;11.33;3.90;;;;;;;10.14;39.81;101421.05;1690352;82;21055;-67
2022/05/19 03:37:11;;;;;;;6.97;3.27;;;;;;;10.21;39.91;101411.50;1676831;84;21054;-67
2022/05/19 03:39:37;;;;;;;11.45;3.95;;;;;;;10.27;39.99;101417.61;1689043;82;21566;-67
2022/05/19 03:42:06;;;;;;;9.98;3.55;;;;;;;10.37;40.06;101421.59;1686101;82;21623;-67
2022/05/19 03:44:33;;;;;;;9.18;3.62;;;;;;;10.45;40.13;101417.69;1690244;82;21957;-67
2022/05/19 03:46:59;;;;;;;10.70;3.92;;;;;;;10.58;40.21;101418.72;1689552;82;21053;-68
2022/05/19 03:49:25;;;;;;;5.70;3.62;;;;;;;11.06;40.43;101416.70;1694207;84;20951;-68
2022/05/19 03:51:51;;;;;;;9.95;5.60;;;;;;;11.83;40.43;101412.21;1692393;83;21037;-68
2022/05/19 03:54:17;;;;;;;9.23;4.60;;;;;;;12.92;40.26;101410.30;1685533;84;21044;-68
2022/05/19 03:56:44;;;;;;;10.80;3.98;;;;;;;13.98;39.94;101410.94;1673720;84;21922;-68
2022/05/19 03:59:10;;;;;;;7.20;3.33;;;;;;;15.26;39.49;101417.58;1682771;82;21021;-68
2022/05/19 04:01:36;;;;;;;7.62;4.00;;;;;;;16.16;38.89;101415.48;1705397;82;20989;-68
2022/05/19 04:04:02;;;;;;;12.98;3.85;;;;;;;16.44;38.39;101410.34;1699204;83;21067;-68
2022/05/19 04:06:28;;;;;;;6.30;3.85;;;;;;;16.71;38.09;101423.75;1648319;85;21008;-68
2022/05/19 04:08:54;;;;;;;8.60;3.58;;;;;;;17.37;37.72;101420.91;1675331;82;21099;-68
2022/05/19 04:11:20;;;;;;;7.20;3.62;;;;;;;18.31;37.25;101425.73;1692626;82;20997;-68
2022/05/19 04:13:46;;;;;;;11.28;3.37;;;;;;;18.71;36.54;101424.20;1705607;82;21083;-68
2022/05/19 04:16:12;;;;;;;8.63;3.50;;;;;;;18.41;35.75;101425.70;1705729;82;21078;-68
2022/05/19 04:18:38;;;;;;;5.97;3.15;;;;;;;18.30;35.47;101427.59;1705226;83;21723;-68
2022/05/19 04:21:04;;;;;;;7.87;3.65;;;;;;;18.42;35.10;101430.09;1701646;84;21317;-69
2022/05/19 04:23:31;;;;;;;10.28;3.85;;;;;;;18.50;34.84;101431.81;1673466;82;21020;-68
2022/05/19 04:25:56;;;;;;;6.72;3.30;;;;;;;18.59;34.46;101436.57;1677387;85;21090;-68
2022/05/19 04:28:23;;;;;;;10.25;4.40;;;;;;;18.85;34.21;101431.36;1693990;82;20915;-69
2022/05/19 04:30:48;;;;;;;9.85;3.40;;;;;;;19.01;33.81;101432.89;1704733;82;21030;-69
2022/05/19 04:33:14;;;;;;;9.70;3.15;;;;;;;19.32;33.50;101438.14;1705760;84;22439;-69
2022/05/19 04:35:40;;;;;;;22.02;4.25;;;;;;;19.83;33.02;101436.37;1705358;82;21634;-69
2022/05/19 04:38:14;;;;;;;13.03;3.98;;;;;;;19.91;32.46;101438.89;1677503;85;21038;-69
2022/05/19 04:40:47;;;;;;;15.30;3.80;;;;;;;19.58;32.22;101442.86;1703931;82;21108;-69
2022/05/19 04:43:21;;;;;;;6.72;3.62;;;;;;;19.11;32.27;101448.23;1705112;82;21068;-69
2022/05/19 04:45:50;;;;;;;5.40;3.65;;;;;;;18.40;32.50;101444.83;1704596;82;21928;-69
2022/05/19 04:48:16;;;;;;;8.33;3.70;;;;;;;17.99;32.64;101455.44;1705786;84;21007;-69
2022/05/19 04:50:42;;;;;;;7.60;3.58;;;;;;;17.90;32.84;101460.66;1704042;82;21034;-69
2022/05/19 04:53:09;;;;;;;7.70;3.87;;;;;;;18.00;32.84;101457.13;1684352;84;21075;-69
2022/05/19 04:55:39;;;;;;;17.82;5.22;;;;;;;17.73;32.84;101459.23;1678754;84;21037;-69
2022/05/19 04:58:07;;;;;;;9.28;3.85;;;;;;;17.54;33.03;101459.79;1685880;85;22020;-69
2022/05/19 05:00:33;;;;;;;10.00;3.72;;;;;;;17.56;33.14;101459.95;1683985;84;21130;-69
2022/05/19 05:02:59;;;;;;;15.03;3.60;;;;;;;17.72;33.24;101457.55;1688978;84;21023;-69
2022/05/19 05:05:25;;;;;;;10.95;3.83;;;;;;;17.91;33.18;101455.05;1685388;84;20935;-69
2022/05/19 05:07:51;;;;;;;8.63;4.20;;;;;;;18.01;33.20;101457.45;1685313;83;21042;-69
2022/05/19 05:10:17;;;;;;;5.12;3.12;;;;;;;18.22;33.19;101454.75;1694968;84;21033;-69
2022/05/19 05:12:43;;;;;;;4.45;3.33;;;;;;;18.24;33.20;101455.38;1695177;84;20959;-69
2022/05/19 05:15:10;;;;;;;14.75;4.15;;;;;;;18.16;33.25;101455.50;1690156;83;20935;-69
2022/05/19 05:17:36;;;;;;;7.08;3.30;;;;;;;18.34;33.35;101463.98;1684190;84;21657;-70
2022/05/19 05:20:03;;;;;;;8.13;4.05;;;;;;;18.60;33.33;101463.41;1671858;85;21078;-69
2022/05/19 05:22:30;;;;;;;6.92;3.42;;;;;;;18.70;33.32;101457.65;1681811;84;21467;-70
2022/05/19 05:24:57;;;;;;;11.88;3.45;;;;;;;18.82;33.28;101456.89;1696063;84;21013;-70
2022/05/19 05:27:23;;;;;;;9.93;3.45;;;;;;;19.03;33.36;101456.02;1674937;84;21007;-69
2022/05/19 05:29:49;;;;;;;7.80;3.15;;;;;;;19.30;33.33;101455.10;1685540;84;21004;-70
2022/05/19 05:32:15;;;;;;;9.48;3.45;;;;;;;19.53;33.33;101449.93;1689150;84;21014;-70
2022/05/19 05:34:41;;;;;;;11.88;3.30;;;;;;;19.77;33.28;101451.54;1694063;84;21398;-70
2022/05/19 05:37:07;;;;;;;5.40;3.08;;;;;;;20.14;33.28;101444.75;1672297;85;20916;-70
2022/05/19 05:39:33;;;;;;;10.65;3.33;;;;;;;20.43;33.14;101449.80;1688830;84;21352;-70
2022/05/19 05:41:59;;;;;;;8.95;2.67;;;;;;;20.53;33.05;101452.61;1687217;83;21446;-70
2022/05/19 05:44:25;;;;;;;5.83;2.98;;;;;;;20.60;33.06;101453.44;1692374;84;21027;-70
2022/05/19 05:46:51;;;;;;;6.80;2.85;;;;;;;20.66;33.13;101453.94;1687939;84;21194;-70
2022/05/19 05:49:18;;;;;;;15.85;3.15;;;;;;;20.63;33.10;101456.56;1691664;84;20991;-70
2022/05/19 05:51:44;;;;;;;3.85;2.67;;;;;;;20.60;33.10;101447.50;1694420;84;21568;-70
2022/05/19 05:54:10;;;;;;;6.92;3.17;;;;;;;20.60;33.29;101454.79;1675856;84;21019;-70
2022/05/19 05:56:36;;;;;;;5.67;3.00;;;;;;;20.73;33.40;101452.05;1687946;84;21108;-70
2022/05/19 05:59:03;;;;;;;5.55;2.40;;;;;;;20.66;33.38;101449.88;1683564;82;21507;-70
2022/05/19 06:01:29;;;;;;;5.15;3.12;;;;;;;20.74;33.58;101449.66;1690265;83;21015;-70
2022/05/19 06:03:55;;;;;;;4.40;2.45;;;;;;;21.02;33.57;101446.69;1686242;84;21038;-70
2022/05/19 06:06:21;;;;;;;11.85;2.98;;;;;;;21.18;33.56;101451.14;1695799;84;21097;-71
2022/05/19 06:08:47;;;;;;;7.70;2.80;;;;;;;21.38;33.48;101441.08;1704455;84;21054;-70
2022/05/19 06:11:13;;;;;;;4.03;2.42;;;;;;;21.55;33.39;101444.64;1696949;83;20978;-70
2022/05/19 06:13:39;;;;;;;11.10;3.25;;;;;;;21.70;33.41;101447.91;1700068;82;21094;-70
2022/05/19 06:16:05;;;;;;;5.15;2.70;;;;;;;22.01;33.39;101446.60;1698145;82;21038;-70
2022/05/19 06:18:32;;;;;;;6.80;2.25;;;;;;;22.19;33.31;101442.61;1694173;83;21078;-70
2022/05/19 06:20:58;;;;;;;6.50;2.67;;;;;;;22.24;33.20;101438.69;1698164;83;21033;-70
2022/05/19 06:23:24;;;;;;;7.33;2.12;;;;;;;22.33;33.23;101444.17;1692636;84;21363;-71
2022/05/19 06:25:50;;;;;;;5.87;2.40;;;;;;;22.58;33.17;101448.77;1699915;83;20890;-70
2022/05/19 06:28:16;;;;;;;6.42;2.37;;;;;;;22.86;33.03;101460.04;1700219;84;22132;-70
2022/05/19 06:30:42;;;;;;;11.73;2.50;;;;;;;22.81;32.82;101454.42;1699459;82;21106;-70
2022/05/19 06:33:08;;;;;;;7.25;2.20;;;;;;;22.77;32.80;101458.64;1694055;82;21014;-70
2022/05/19 06:35:34;;;;;;;5.53;2.10;;;;;;;22.95;32.77;101451.88;1685000;83;22139;-70
2022/05/19 06:38:00;;;;;;;14.75;2.75;;;;;;;23.02;32.68;101448.55;1696822;82;21026;-70
2022/05/19 06:40:28;;;;;;;7.42;4.72;;;;;;;23.20;32.64;101458.61;1696252;84;21011;-71
2022/05/19 06:42:55;;;;;;;6.60;2.37;;;;;;;23.29;32.52;101456.70;1697757;84;21107;-70
2022/05/19 06:45:24;;;;;;;9.58;2.52;;;;;;;23.43;32.50;101448.44;1692195;82;21563;-70
2022/05/19 06:47:50;;;;;;;5.05;2.60;;;;;;;23.39;32.36;101451.59;1693204;82;21282;-71
2022/05/19 06:50:17;;;;;;;9.35;2.50;;;;;;;23.45;32.33;101442.22;1703132;84;21015;-71
2022/05/19 06:52:50;;;;;;;5.28;2.40;;;;;;;23.36;32.16;101443.84;1688621;82;21539;-70
2022/05/19 06:55:17;;;;;;;10.93;3.30;;;;;;;23.24;32.11;101437.52;1693148;82;21850;-70
2022/05/19 06:57:43;;;;;;;8.18;2.60;;;;;;;23.29;32.11;101434.93;1693826;82;21078;-70
2022/05/19 07:00:13;;;;;;;13.40;3.10;;;;;;;23.39;32.11;101434.41;1694145;82;21294;-70
2022/05/19 07:02:42;;;;;;;7.35;3.25;;;;;;;23.60;32.04;101440.77;1695437;83;21063;-70
2022/05/19 07:05:09;;;;;;;6.42;2.90;;;;;;;23.73;31.92;101438.38;1698495;84;21607;-70
2022/05/19 07:07:35;;;;;;;9.73;3.15;;;;;;;23.76;31.75;101439.27;1698056;83;21035;-70
2022/05/19 07:10:02;;;;;;;5.80;2.75;;;;;;;23.80;31.64;101441.84;1697448;82;21605;-70
2022/05/19 07:12:28;;;;;;;11.57;2.45;;;;;;;23.86;31.54;101439.55;1695680;82;21211;-70
2022/05/19 07:14:55;;;;;;;11.68;2.95;;;;;;;23.79;31.42;101438.80;1697898;82;20987;-71
2022/05/19 07:17:21;;;;;;;9.45;2.35;;;;;;;23.74;31.35;101438.16;1695641;83;21017;-70
2022/05/19 07:22:33;;;;;;;6.72;3.05;;;;;;;24.03;31.23;101437.01;1695293;82;21078;-70
2022/05/19 07:25:00;;;;;;;6.25;2.75;;;;;;;24.03;31.18;101428.83;1702553;83;21417;-70
2022/05/19 07:27:26;;;;;;;5.70;2.10;;;;;;;24.19;31.25;101430.37;1698162;82;21020;-70
2022/05/19 07:29:52;;;;;;;3.67;1.72;;;;;;;24.39;31.13;101424.58;1698149;83;21096;-70
2022/05/19 07:32:20;;;;;;;7.40;2.45;;;;;;;24.55;31.11;101428.52;1698386;83;20916;-70
2022/05/19 07:34:46;;;;;;;3.52;1.90;;;;;;;24.56;30.97;101420.64;1700657;83;21031;-70
2022/05/19 07:37:12;;;;;;;5.47;1.90;;;;;;;24.47;30.94;101421.51;1694542;82;22331;-70
2022/05/19 07:39:38;;;;;;;7.22;2.20;;;;;;;24.63;31.08;101422.72;1698458;82;21047;-70
2022/05/19 07:42:05;;;;;;;5.60;2.20;;;;;;;24.75;31.02;101418.06;1690912;82;21127;-70
2022/05/19 07:44:31;;;;;;;6.30;2.00;;;;;;;24.94;30.94;101418.80;1699031;83;21589;-70
2022/05/19 07:46:57;;;;;;;6.45;2.00;;;;;;;25.03;30.85;101418.18;1698606;83;21065;-71
2022/05/19 07:49:24;;;;;;;8.18;2.20;;;;;;;25.11;30.88;101424.64;1694873;83;21722;-70
2022/05/19 07:51:50;;;;;;;6.12;2.35;;;;;;;25.29;30.82;101423.65;1695672;83;20983;-70
2022/05/19 07:54:20;;;;;;;5.78;2.40;;;;;;;25.37;30.72;101421.08;1698848;83;21018;-70
2022/05/19 07:56:46;;;;;;;7.05;2.17;;;;;;;25.45;30.67;101421.50;1700248;83;21197;-71
2022/05/19 07:59:12;;;;;;;5.05;2.45;;;;;;;25.52;30.65;101416.76;1697531;83;20920;-70
2022/05/19 08:01:40;;;;;;;4.20;2.22;;;;;;;25.66;30.61;101420.02;1695615;82;21792;-70
2022/05/19 08:04:06;;;;;;;4.40;1.72;;;;;;;25.80;30.64;101420.85;1694399;83;21500;-70
2022/05/19 08:06:33;;;;;;;4.67;2.15;;;;;;;25.90;30.59;101418.00;1694309;82;21082;-70
2022/05/19 08:08:59;;;;;;;4.55;2.10;;;;;;;26.01;30.56;101414.38;1693429;83;21465;-70
2022/05/19 08:11:27;;;;;;;6.30;2.25;;;;;;;26.13;30.45;101412.41;1691385;83;21057;-70
2022/05/19 08:16:38;;;;;;;2.95;1.72;;;;;;;26.37;30.39;101402.16;1699849;84;21014;-70
2022/05/19 08:19:04;;;;;;;5.22;2.33;;;;;;;26.48;30.35;101401.23;1695564;82;20895;-70
2022/05/19 08:21:31;;;;;;;3.87;2.10;;;;;;;26.58;30.22;101395.91;1687993;83;20905;-70
2022/05/19 08:23:57;;;;;;;6.30;4.72;;;;;;;26.61;30.05;101398.14;1693832;84;21011;-71
2022/05/19 08:26:23;;;;;;;6.60;2.22;;;;;;;26.56;30.03;101399.45;1696849;83;21786;-71
2022/05/19 08:28:49;;;;;;;2.47;1.80;;;;;;;26.59;29.92;101396.20;1694694;83;20994;-70
2022/05/19 08:31:23;;;;;;;4.70;2.00;;;;;;;26.59;29.86;101393.47;1700206;83;21056;-71
2022/05/19 08:33:52;;;;;;;8.55;2.50;;;;;;;26.62;29.76;101391.59;1694182;82;21023;-71
2022/05/19 08:36:18;;;;;;;3.35;2.08;;;;;;;26.57;29.73;101388.77;1694884;83;21543;-70
2022/05/19 08:38:44;;;;;;;5.90;1.98;;;;;;;26.52;29.74;101384.61;1697149;83;21864;-71
2022/05/19 08:41:27;;;;;;;2.85;2.05;;;;;;;26.60;29.66;101384.19;1694205;82;21705;-71
2022/05/19 08:44:03;;;;;;;6.72;2.10;;;;;;;26.70;29.55;101378.33;1698124;82;21416;-71
2022/05/19 08:46:38;;;;;;;4.25;2.15;;;;;;;26.90;29.42;101381.06;1699157;83;20913;-71
2022/05/19 08:49:13;;;;;;;5.53;2.08;;;;;;;26.88;29.34;101379.97;1696109;82;21054;-71
2022/05/19 08:51:53;;;;;;;3.22;2.12;;;;;;;26.84;29.30;101373.88;1695610;83;22109;-70
2022/05/19 08:54:23;;;;;;;5.20;1.98;;;;;;;26.91;29.16;101368.50;1695260;82;21477;-71
2022/05/19 08:57:22;;;;;;;3.00;1.77;;;;;;;27.07;29.03;101366.23;1695896;82;21033;-71
2022/05/19 09:00:28;;;;;;;1.62;1.50;;;;;;;27.21;28.83;101358.44;1696902;83;21065;-70
2022/05/19 09:03:05;;;;;;;2.45;1.50;;;;;;;27.24;28.76;101359.30;1696144;83;21496;-70
2022/05/19 09:06:23;;;;;;;4.35;2.00;;;;;;;27.19;28.66;101355.98;1695215;82;21852;-70
2022/05/19 09:09:04;;;;;;;3.10;1.92;;;;;;;27.27;28.60;101359.61;1697927;82;21000;-70
2022/05/19 09:11:39;;;;;;;2.77;1.82;;;;;;;27.31;28.69;101353.91;1643315;82;21434;-70
2022/05/19 09:14:21;;;;;;;5.97;1.82;;;;;;;27.25;28.56;101353.58;1698060;82;21500;-70
2022/05/19 09:16:48;;;;;;;7.83;2.45;;;;;;;27.14;28.50;101351.80;1685933;83;21019;-70
2022/05/19 09:19:34;;;;;;;4.70;2.87;;;;;;;27.28;28.47;101347.58;1695741;82;22452;-70
2022/05/19 09:22:16;;;;;;;6.30;2.20;;;;;;;27.21;28.39;101352.42;1695667;83;21057;-70
2022/05/19 09:24:45;;;;;;;7.17;2.52;;;;;;;27.08;28.47;101336.39;1693108;83;21155;-70
2022/05/19 09:27:12;;;;;;;5.40;2.50;;;;;;;26.93;28.40;101343.05;1697563;83;21093;-70
2022/05/19 09:29:45;;;;;;;5.75;1.98;;;;;;;26.52;28.45;101325.78;1700804;83;21477;-70
2022/05/19 09:32:26;;;;;;;4.08;2.25;;;;;;;26.42;28.62;101333.84;1698005;83;21867;-70
2022/05/19 09:34:55;;;;;;;6.95;2.52;;;;;;;26.72;28.78;101336.45;1696422;83;21039;-70
2022/05/19 09:37:44;;;;;;;2.98;2.12;;;;;;;27.01;28.86;101328.92;1696533;82;21026;-70
2022/05/19 09:40:15;;;;;;;7.00;2.65;;;;;;;26.89;28.79;101326.84;1696313;82;20961;-70
2022/05/19 09:42:58;;;;;;;4.90;2.20;;;;;;;26.66;28.78;101321.06;1697602;82;21035;-70
2022/05/19 09:45:26;;;;;;;8.50;2.85;;;;;;;26.46;28.75;101313.92;1698486;82;23792;-70
2022/05/19 09:48:01;;;;;;;12.15;2.17;;;;;;;26.19;28.79;101319.28;1695274;82;21515;-70
2022/05/19 09:50:32;;;;;;;4.72;2.47;;;;;;;26.07;28.88;101310.87;1695043;82;21592;-70
2022/05/19 09:53:04;;;;;;;7.42;2.47;;;;;;;26.24;29.03;101308.97;1678669;82;20968;-70
2022/05/19 09:55:32;;;;;;;12.23;2.65;;;;;;;26.30;29.02;101312.89;1639335;84;21648;-70
2022/05/19 09:58:00;;;;;;;7.58;2.58;;;;;;;26.27;28.99;101321.61;1668166;84;22049;-70
2022/05/19 10:00:50;;;;;;;5.15;2.17;;;;;;;26.11;28.94;101314.20;1650303;85;21977;-70
2022/05/19 10:03:38;;;;;;;5.83;2.02;;;;;;;26.05;29.09;101308.37;1643573;85;21145;-69
2022/05/19 10:06:18;;;;;;;4.00;2.35;;;;;;;26.36;29.23;101304.73;1665932;84;21031;-70
2022/05/19 10:08:47;;;;;;;7.87;3.50;;;;;;;26.70;29.14;101300.85;1664325;84;21085;-70
2022/05/19 10:11:23;;;;;;;4.20;2.00;;;;;;;26.43;29.04;101300.75;1667124;84;21848;-70
2022/05/19 10:13:53;;;;;;;6.35;2.20;;;;;;;26.42;29.07;101299.66;1665372;84;21861;-70
2022/05/19 10:16:47;;;;;;;6.00;2.20;;;;;;;26.44;28.96;101296.11;1667506;84;21338;-70
2022/05/19 10:19:24;;;;;;;6.17;2.37;;;;;;;26.42;28.95;101298.28;1667251;84;21040;-70
2022/05/19 10:22:14;;;;;;;3.58;2.22;;;;;;;26.62;28.90;101292.53;1665832;84;20974;-70
2022/05/19 10:25:13;;;;;;;4.95;1.80;;;;;;;26.83;28.82;101283.23;1666313;84;22443;-70
2022/05/19 10:31:32;;;;;;;7.30;2.20;;;;;;;27.04;28.60;101287.33;1666208;84;21045;-70
2022/05/19 10:34:27;;;;;;;5.70;1.62;;;;;;;27.07;28.56;101278.59;1672702;84;21490;-69
2022/05/19 10:37:17;;;;;;;3.70;1.80;;;;;;;26.98;28.55;101275.20;1670085;84;21038;-72
2022/05/19 10:40:28;;;;;;;5.58;2.05;;;;;;;26.99;28.55;101268.09;1668005;84;22076;-71
2022/05/19 10:43:31;;;;;;;4.22;2.02;;;;;;;27.14;28.48;101266.89;1672462;85;21026;-71
2022/05/19 10:45:57;;;;;;;4.53;1.77;;;;;;;27.21;28.37;101264.77;1671417;84;22099;-72
2022/05/19 10:48:53;;;;;;;5.08;1.90;;;;;;;27.12;28.13;101258.12;1643622;84;21073;-72
2022/05/19 10:51:41;;;;;;;4.97;2.00;;;;;;;26.79;27.61;101260.98;1668560;84;21026;-72
2022/05/19 10:54:36;;;;;;;4.35;2.10;;;;;;;26.84;27.56;101252.88;1603510;85;21771;-71
2022/05/19 10:57:42;;;;;;;1.65;1.40;;;;;;;26.76;27.52;101245.08;1644898;86;21087;-72
2022/05/19 11:00:22;;;;;;;9.10;1.87;;;;;;;27.00;27.50;101245.10;1641957;86;21034;-72
2022/05/19 11:03:10;;;;;;;7.33;1.67;;;;;;;27.10;27.27;101238.36;1622575;86;21118;-72
2022/05/19 11:05:59;;;;;;;3.55;1.62;;;;;;;27.35;27.07;101239.14;1616332;88;21469;-71
2022/05/19 11:08:57;;;;;;;;;;;;;;;27.50;26.62;101240.69;1659696;86;21876;-71
2022/05/19 11:12:01;;;;;;;3.40;1.32;;;;;;;27.58;26.32;101237.47;1636623;85;20179;-71
2022/05/19 11:15:00;;;;;;;3.42;1.45;;;;;;;27.64;26.19;101221.88;1634144;85;21045;-71
2022/05/19 11:17:34;;;;;;;4.60;1.70;;;;;;;27.67;25.91;101229.58;1622919;86;21097;-72
2022/05/19 11:20:12;;;;;;;8.05;1.67;;;;;;;27.64;25.72;101219.14;1625467;86;21109;-71
2022/05/19 11:22:39;;;;;;;1.75;1.62;;;;;;;27.64;25.60;101215.03;1645634;87;22360;-71
2022/05/19 11:28:05;;;;;;;6.60;1.95;;;;;;;27.72;25.45;101200.84;1645722;87;21154;-71
2022/05/19 11:30:39;;;;;;;7.15;2.40;;;;;;;27.84;25.41;101208.31;1644250;86;21498;-72
2022/05/19 11:33:10;;;;;;;2.77;1.50;;;;;;;27.98;25.37;101199.06;1642190;87;21066;-71
2022/05/19 11:35:43;;;;;;;7.65;2.08;;;;;;;28.00;25.26;101198.27;1617521;87;21928;-72
2022/05/19 11:38:27;;;;;;;7.25;1.65;;;;;;;28.00;25.28;101195.53;1655912;86;21486;-71
2022/05/19 11:41:00;;;;;;;3.02;1.70;;;;;;;28.04;25.17;101190.59;1595071;87;21573;-72
2022/05/19 11:43:43;;;;;;;4.45;1.70;;;;;;;27.84;25.21;101185.55;1641841;87;21177;-72
2022/05/19 11:46:22;;;;;;;1.92;1.67;;;;;;;27.79;25.24;101186.36;1623196;87;21470;-72
2022/05/19 11:55:13;;;;;;;7.85;2.27;;;;;;;27.86;24.39;101184.21;1652240;85;21030;-72
2022/05/19 11:58:07;;;;;;;6.67;1.60;;;;;;;27.97;24.32;101177.67;1594581;86;21412;-71
2022/05/19 12:01:17;;;;;;;3.75;1.52;;;;;;;27.78;24.17;101173.73;1600174;87;21072;-71
2022/05/19 12:03:54;;;;;;;4.42;1.90;;;;;;;27.82;24.07;101172.12;1637260;87;21801;-71
2022/05/19 12:06:27;;;;;;;3.52;1.60;;;;;;;27.90;23.99;101159.83;1636091;86;21031;-71